Osceola, WI

2:58 AM CST on February 14, 2016 (GMT -0600)
Simenstad Municipal | | Change Station
CLOSE
Current Station
Airport
Location: Osceola,
Elevation: 902 ft
Nearby Weather Stations

Elev 902 ft 45.31 °N, 92.69 °W | Updated 23 minutes ago

Overcast
Overcast
6 °F
Feels Like -7 °F
N
9
Wind Variable Wind from SE

Today
High -- | Low -- °F
--% Chance of Precip.
Yesterday
High -- | Low -- °F
Precip. -- in
Pressure 30.28 in
Visibility 10.0 miles
Clouds Overcast 7500 ft
Windchill -7 °F
Dew Point -6 °F
Humidity 56%
Rainfall 0.00 in
Snow Depth Not available.
7:14 AM 5:36 PM
Waxing Crescent, 39% visible
METAR KOEO 140835Z AUTO 13008KT 10SM OVC075 M14/M21 A3028 RMK AO2 T11421213
Pressure 30.28 in
Visibility 10.0 miles
Clouds Overcast 7500 ft
Windchill -7 °F
Dew Point -6 °F
Humidity 56%
Rainfall 0.00 in
Snow Depth Not available.
7:14 AM 5:36 PM
Waxing Crescent, 39% visible
METAR KOEO 140835Z AUTO 13008KT 10SM OVC075 M14/M21 A3028 RMK AO2 T11421213

10-Day Weather Forecast

Almanac

Astronomy

Feb. 14, 2016 Rise Set
Actual Time
Civil Twilight
Nautical Twilight
Astronomical Twilight
Moon
Length of Visible Light
Length of Day
Tomorrow will be .
, % of the Moon is Illuminated

Today's Extremes

State Highs State Lows

Community

WunderPhotos

Upload Photos

1,892,763 photos uploaded!

WunderBlog® & News

Nearby

Air Quality

  Air Quality AQ Index Pollutant
Not available.

Snow Depth

Station Depth Elevation

Earthquake Activity

City Distance Mag. Time & Date
Minimum magnitude displayed is 2.5.

Coastal Water Temperatures

Place Temperature

Stations

Nearby Weather Stations

Station Location Temp. Windchill Dew Point Humidity Wind Precip. Elev Updated Type
                   

Watches & Warnings

There are currently no watches in effect.